Time;durP1;ratioP1;P1;durP2;ratioP2;P2;SDS_P1;SDS_P2;PMS_P1;PMS_P2;Temp;Humidity;BMP_temperature;BMP_pressure;BME280_temperature;BME280_humidity;BME280_pressure;Samples;Min_cycle;Max_cycle;Signal;HPM_P1;HPM_P2
2022/12/18 00:00:59;;;;;;;31.07;23.07;;;;;;;4.96;100.00;102415.88;2113536;28;20284;-61
2022/12/18 00:02:00;;;;;;;30.83;23.43;;;;;;;5.65;100.00;102533.59;2110639;28;20224;-61
2022/12/18 00:03:00;;;;;;;32.50;24.23;;;;;;;5.56;100.00;102533.75;2105665;28;20262;-62
2022/12/18 00:04:06;;;;;;;32.40;23.70;;;;;;;5.60;100.00;102526.38;2105992;28;20209;-62
2022/12/18 00:05:07;;;;;;;29.83;23.20;;;;;;;5.65;100.00;102531.63;2105672;28;20166;-62
2022/12/18 00:06:08;;;;;;;30.30;22.93;;;;;;;5.54;100.00;102527.03;2114045;28;20264;-62
2022/12/18 00:07:09;;;;;;;32.80;23.02;;;;;;;5.58;100.00;102536.13;2114441;28;20202;-62
2022/12/18 00:08:09;;;;;;;30.77;23.40;;;;;;;5.57;100.00;102538.09;2106686;28;20192;-61
2022/12/18 00:09:10;;;;;;;32.07;24.57;;;;;;;5.38;100.00;102498.69;2105806;28;20203;-61
2022/12/18 00:10:10;;;;;;;31.00;23.17;;;;;;;5.72;100.00;102542.03;2110374;28;20174;-62
2022/12/18 00:11:16;;;;;;;28.97;22.70;;;;;;;5.69;100.00;102540.78;2113980;28;20638;-62
2022/12/18 00:12:16;;;;;;;29.90;22.75;;;;;;;5.62;100.00;102543.34;2114275;28;20170;-62
2022/12/18 00:13:17;;;;;;;29.40;22.87;;;;;;;5.60;100.00;102542.09;2114299;28;20185;-62
2022/12/18 00:14:17;;;;;;;31.03;23.33;;;;;;;5.52;100.00;102548.56;2113910;28;20678;-62
2022/12/18 00:15:18;;;;;;;30.90;23.37;;;;;;;5.49;100.00;102543.78;2105545;28;20181;-62
2022/12/18 00:16:21;;;;;;;30.07;22.13;;;;;;;5.52;100.00;102543.06;2105411;28;20673;-62
2022/12/18 00:17:21;;;;;;;29.42;22.67;;;;;;;5.52;100.00;102543.06;2106148;28;20866;-61
2022/12/18 00:18:22;;;;;;;31.07;22.73;;;;;;;5.50;100.00;102548.94;2105216;28;20636;-61
2022/12/18 00:19:22;;;;;;;29.20;22.30;;;;;;;5.58;100.00;102549.88;2110179;28;20242;-62
2022/12/18 00:20:25;;;;;;;30.43;21.90;;;;;;;5.61;100.00;102549.19;2110986;28;20205;-61
2022/12/18 00:21:28;;;;;;;30.52;22.80;;;;;;;5.63;100.00;102553.19;2105099;28;20534;-61
2022/12/18 00:22:28;;;;;;;28.67;21.05;;;;;;;5.62;100.00;102553.53;2107057;28;20265;-62
2022/12/18 00:23:30;;;;;;;30.00;22.43;;;;;;;5.65;100.00;102569.34;2113831;28;20651;-61
2022/12/18 00:24:30;;;;;;;29.35;22.25;;;;;;;5.72;100.00;102564.84;2105310;28;20745;-61
2022/12/18 00:25:34;;;;;;;29.27;22.20;;;;;;;5.68;100.00;102555.69;2105020;28;20546;-62
2022/12/18 00:26:37;;;;;;;29.30;22.60;;;;;;;5.32;100.00;102491.81;2105826;28;20281;-61
2022/12/18 00:27:37;;;;;;;29.60;22.05;;;;;;;5.75;100.00;102544.88;2111644;28;20197;-61
2022/12/18 00:28:38;;;;;;;29.40;21.77;;;;;;;5.34;100.00;102493.06;2113419;28;20186;-61
2022/12/18 00:29:41;;;;;;;31.43;23.47;;;;;;;5.78;100.00;102562.63;2110238;28;20260;-61
2022/12/18 00:30:41;;;;;;;30.98;23.60;;;;;;;5.70;100.00;102553.38;2108062;28;20185;-61
2022/12/18 00:31:42;;;;;;;29.17;22.67;;;;;;;5.65;100.00;102548.13;2113617;28;20227;-62
2022/12/18 00:32:42;;;;;;;30.50;22.80;;;;;;;5.82;100.00;102567.09;2114031;28;20177;-61
2022/12/18 00:33:43;;;;;;;29.33;22.20;;;;;;;5.81;100.00;102572.97;2105839;28;20228;-61
2022/12/18 00:34:43;;;;;;;31.20;23.97;;;;;;;5.84;100.00;102580.53;2120792;27;20225;-61
2022/12/18 00:35:44;;;;;;;30.97;22.07;;;;;;;5.74;100.00;102576.28;2121033;27;20182;-61
2022/12/18 00:36:47;;;;;;;31.23;22.57;;;;;;;5.52;100.00;102556.81;2110488;28;20181;-61
2022/12/18 00:37:48;;;;;;;29.73;22.83;;;;;;;5.68;100.00;102579.63;2114218;28;20190;-62
2022/12/18 00:38:48;;;;;;;30.40;23.27;;;;;;;5.49;100.00;102615.28;2113716;28;20185;-62
2022/12/18 00:39:49;;;;;;;31.57;23.60;;;;;;;5.48;100.00;102595.22;2111305;28;20553;-62
2022/12/18 00:40:50;;;;;;;32.70;23.97;;;;;;;5.46;100.00;102592.03;2105527;28;20213;-62
2022/12/18 00:43:09;;;;;;;32.95;24.02;;;;;;;5.45;100.00;102595.13;2105802;28;20173;-61
2022/12/18 00:44:12;;;;;;;31.23;23.13;;;;;;;5.49;100.00;102604.28;2114444;28;20217;-62
2022/12/18 00:45:13;;;;;;;31.80;23.90;;;;;;;4.70;100.00;102503.44;2114058;28;20188;-62
2022/12/18 00:46:13;;;;;;;32.27;23.87;;;;;;;4.68;100.00;102513.97;2113164;28;20318;-61
2022/12/18 00:47:13;;;;;;;36.90;25.20;;;;;;;5.26;100.00;102606.75;2114286;28;20630;-62
2022/12/18 00:48:14;;;;;;;32.27;23.50;;;;;;;5.17;100.00;102610.78;2113694;28;20193;-62
2022/12/18 00:49:17;;;;;;;32.23;23.90;;;;;;;5.08;100.00;102619.16;2113766;28;20223;-62
2022/12/18 00:50:18;;;;;;;32.30;23.88;;;;;;;4.97;100.00;102600.78;2113531;28;20316;-62
2022/12/18 00:51:19;;;;;;;34.17;24.60;;;;;;;4.41;100.00;102508.41;2113424;28;20173;-62
2022/12/18 00:52:19;;;;;;;31.13;23.97;;;;;;;5.12;100.00;102613.81;2113383;28;20413;-61
2022/12/18 00:53:20;;;;;;;32.50;23.73;;;;;;;4.83;100.00;102551.69;2105826;28;20617;-61
2022/12/18 00:54:20;;;;;;;33.10;25.07;;;;;;;4.76;100.00;102534.19;2113494;28;20213;-61
2022/12/18 00:55:21;;;;;;;33.33;24.10;;;;;;;5.30;100.00;102615.09;2114033;28;20174;-61
2022/12/18 00:56:21;;;;;;;31.50;23.80;;;;;;;5.30;100.00;102604.09;2113013;28;20188;-61
2022/12/18 00:57:22;;;;;;;31.40;23.43;;;;;;;5.45;100.00;102611.63;2109574;28;20700;-61
2022/12/18 00:58:22;;;;;;;31.23;23.67;;;;;;;5.49;100.00;102612.53;2108557;28;20216;-61
2022/12/18 00:59:23;;;;;;;31.30;23.40;;;;;;;5.35;100.00;102587.38;2113932;28;20177;-62
2022/12/18 01:00:23;;;;;;;32.77;23.57;;;;;;;5.57;100.00;102612.38;2113284;28;20212;-61
2022/12/18 01:01:23;;;;;;;31.77;22.70;;;;;;;5.51;100.00;102610.22;2113539;28;20572;-61
2022/12/18 01:02:24;;;;;;;31.83;24.23;;;;;;;4.86;100.00;102503.47;2113968;28;20197;-61
2022/12/18 01:03:24;;;;;;;31.83;24.30;;;;;;;5.28;100.00;102562.44;2113733;28;20263;-61
2022/12/18 01:04:25;;;;;;;35.00;23.67;;;;;;;5.51;100.00;102600.03;2113928;28;20356;-61
2022/12/18 01:05:26;;;;;;;34.53;24.03;;;;;;;5.62;100.00;102619.56;2109452;28;20276;-61
2022/12/18 01:06:26;;;;;;;31.52;23.88;;;;;;;5.62;100.00;102614.06;2104603;28;20695;-61
2022/12/18 01:07:27;;;;;;;33.80;24.77;;;;;;;5.69;100.00;102617.81;2105500;28;20603;-61
2022/12/18 01:08:27;;;;;;;33.23;23.77;;;;;;;5.73;100.00;102623.41;2105331;28;20180;-62
2022/12/18 01:09:28;;;;;;;36.23;26.07;;;;;;;5.71;100.00;102621.03;2105425;28;20564;-62
2022/12/18 01:10:29;;;;;;;34.47;24.57;;;;;;;5.68;100.00;102616.22;2104976;28;20612;-61
2022/12/18 01:11:29;;;;;;;32.67;24.27;;;;;;;5.65;100.00;102624.38;2104925;28;20585;-62
2022/12/18 01:12:30;;;;;;;32.37;24.83;;;;;;;5.55;100.00;102609.16;2105494;28;20615;-61
2022/12/18 01:13:30;;;;;;;34.10;24.87;;;;;;;5.63;100.00;102627.47;2105643;28;20247;-61
2022/12/18 01:14:31;;;;;;;32.17;24.37;;;;;;;5.54;100.00;102598.53;2105415;28;20650;-62
2022/12/18 01:15:31;;;;;;;35.33;25.03;;;;;;;5.73;100.00;102615.97;2105079;28;20581;-61
2022/12/18 01:16:31;;;;;;;34.23;24.83;;;;;;;5.75;100.00;102604.59;2105185;28;20167;-61
2022/12/18 01:17:33;;;;;;;31.83;24.13;;;;;;;5.76;100.00;102608.94;2105464;28;20597;-61
2022/12/18 01:18:33;;;;;;;33.33;24.73;;;;;;;5.77;100.00;102605.84;2105641;28;20556;-62
2022/12/18 01:19:34;;;;;;;32.43;25.17;;;;;;;5.81;100.00;102614.22;2112507;28;20189;-62
2022/12/18 01:20:34;;;;;;;31.83;24.17;;;;;;;5.80;100.00;102601.63;2113622;28;20193;-61
2022/12/18 01:21:35;;;;;;;34.07;24.33;;;;;;;5.83;100.00;102598.97;2112849;28;20698;-62
2022/12/18 01:22:36;;;;;;;30.37;23.23;;;;;;;5.89;100.00;102603.06;2110154;28;20642;-61
2022/12/18 01:23:37;;;;;;;31.20;22.85;;;;;;;5.92;100.00;102607.88;2105250;28;20178;-62
2022/12/18 01:24:38;;;;;;;33.17;24.63;;;;;;;5.92;100.00;102588.59;2105342;28;20652;-61
2022/12/18 01:25:38;;;;;;;31.47;24.20;;;;;;;6.05;100.00;102592.84;2104676;28;20196;-61
2022/12/18 01:26:39;;;;;;;32.73;24.83;;;;;;;6.03;100.00;102608.94;2105573;28;20171;-62
2022/12/18 01:27:39;;;;;;;30.90;22.83;;;;;;;5.86;100.00;102590.03;2112697;28;20195;-61
2022/12/18 01:28:40;;;;;;;29.30;23.07;;;;;;;5.85;100.00;102599.41;2113578;28;20221;-62
2022/12/18 01:29:40;;;;;;;32.23;24.13;;;;;;;5.86;100.00;102600.22;2113607;28;20229;-61
2022/12/18 01:30:41;;;;;;;34.60;25.77;;;;;;;5.83;100.00;102590.72;2113694;28;20651;-62
2022/12/18 01:31:41;;;;;;;30.30;23.93;;;;;;;5.90;100.00;102599.16;2112703;28;20181;-61
2022/12/18 01:32:41;;;;;;;31.07;23.80;;;;;;;5.89;100.00;102596.78;2113687;28;20202;-62
2022/12/18 01:33:42;;;;;;;31.83;23.57;;;;;;;5.88;100.00;102595.97;2113544;28;20252;-61
2022/12/18 01:34:43;;;;;;;32.03;24.35;;;;;;;6.03;100.00;102617.19;2114050;28;20229;-62
2022/12/18 01:35:43;;;;;;;29.83;22.87;;;;;;;6.11;100.00;102620.94;2105904;28;20254;-62
2022/12/18 01:36:44;;;;;;;30.20;23.23;;;;;;;6.11;100.00;102612.69;2114859;28;20178;-61
2022/12/18 01:37:44;;;;;;;29.70;22.93;;;;;;;6.07;100.00;102611.78;2114387;28;20200;-61
2022/12/18 01:38:45;;;;;;;30.17;22.83;;;;;;;6.05;100.00;102608.59;2111430;28;20196;-61
2022/12/18 01:39:46;;;;;;;29.35;22.73;;;;;;;6.08;100.00;102611.44;2115439;28;20188;-61
2022/12/18 01:40:46;;;;;;;28.97;22.70;;;;;;;6.07;100.00;102618.09;2115350;28;20166;-61
2022/12/18 01:42:02;;;;;;;32.40;22.50;;;;;;;6.06;100.00;102618.44;2113535;28;20668;-61
2022/12/18 01:43:02;;;;;;;27.95;21.98;;;;;;;6.08;100.00;102619.69;2106878;28;20157;-61
2022/12/18 01:44:41;;;;;;;27.37;21.57;;;;;;;6.02;100.00;102623.06;2114819;28;20354;-61
2022/12/18 01:45:42;;;;;;;26.17;19.40;;;;;;;6.10;100.00;102622.09;2114641;28;20272;-61
2022/12/18 01:46:42;;;;;;;27.93;21.13;;;;;;;6.02;100.00;102626.63;2111982;28;20191;-61
2022/12/18 01:47:52;;;;;;;25.77;19.93;;;;;;;6.04;100.00;102629.00;2108161;28;20566;-61
2022/12/18 01:48:57;;;;;;;28.48;20.73;;;;;;;5.62;100.00;102561.78;2114598;28;20252;-61
2022/12/18 01:50:01;;;;;;;27.95;21.05;;;;;;;6.04;100.00;102634.50;2113652;27;20194;-61
2022/12/18 01:51:02;;;;;;;26.80;20.35;;;;;;;5.63;100.00;102574.38;2106879;28;20730;-61
2022/12/18 01:52:03;;;;;;;27.60;21.10;;;;;;;5.88;100.00;102617.16;2106082;28;20552;-61
2022/12/18 01:53:11;;;;;;;26.03;20.87;;;;;;;6.03;100.00;102641.97;2106999;28;20616;-61
2022/12/18 01:54:11;;;;;;;28.05;21.88;;;;;;;6.00;100.00;102636.38;2107205;28;20636;-61
2022/12/18 01:55:16;;;;;;;27.67;20.87;;;;;;;5.82;100.00;102613.06;2113163;28;20609;-61
2022/12/18 01:56:19;;;;;;;27.92;22.33;;;;;;;5.98;100.00;102655.19;2108383;28;20197;-61
2022/12/18 01:57:20;;;;;;;28.42;21.98;;;;;;;5.99;100.00;102638.31;2112756;28;20186;-61
2022/12/18 01:58:28;;;;;;;29.20;22.70;;;;;;;5.94;100.00;102643.28;2114921;27;20208;-61
2022/12/18 01:59:31;;;;;;;28.35;21.77;;;;;;;5.96;100.00;102643.72;2115240;28;20234;-61
2022/12/18 02:00:33;;;;;;;27.83;22.08;;;;;;;5.90;100.00;102648.69;2115381;28;20681;-61
2022/12/18 02:01:35;;;;;;;30.75;22.75;;;;;;;5.87;100.00;102643.09;2114854;28;20177;-61
2022/12/18 02:02:35;;;;;;;27.70;22.02;;;;;;;5.82;100.00;102654.34;2114824;27;20177;-61
2022/12/18 02:03:36;;;;;;;28.77;22.40;;;;;;;5.85;100.00;102659.16;2114812;28;20201;-61
2022/12/18 02:04:36;;;;;;;28.80;22.50;;;;;;;5.77;100.00;102647.13;2115640;28;20185;-61
2022/12/18 02:05:48;;;;;;;29.90;22.83;;;;;;;5.84;100.00;102650.09;2107079;28;20209;-61
2022/12/18 02:07:03;;;;;;;30.02;22.80;;;;;;;5.84;100.00;102652.84;2115189;28;20560;-61
2022/12/18 02:08:20;;;;;;;30.65;22.92;;;;;;;5.87;100.00;102665.09;2107158;28;20173;-60
2022/12/18 02:09:27;;;;;;;30.77;22.40;;;;;;;5.89;100.00;102660.84;2106292;28;20171;-61
2022/12/18 02:10:54;;;;;;;30.60;22.98;;;;;;;5.83;100.00;102664.19;2107149;28;20174;-61
2022/12/18 02:12:15;;;;;;;31.88;23.08;;;;;;;5.87;100.00;102667.84;2114917;28;20171;-61
2022/12/18 02:13:21;;;;;;;27.48;21.20;;;;;;;5.86;100.00;102658.00;2114665;28;20197;-61
2022/12/18 02:14:40;;;;;;;28.95;21.58;;;;;;;5.88;100.00;102662.00;2115237;28;20261;-61
2022/12/18 02:15:49;;;;;;;30.05;21.65;;;;;;;5.86;100.00;102658.00;2109091;28;20193;-61
2022/12/18 02:17:06;;;;;;;30.98;22.48;;;;;;;5.88;100.00;102670.25;2106734;28;20246;-61
2022/12/18 02:18:17;;;;;;;29.08;21.83;;;;;;;5.84;100.00;102635.56;2113464;28;20252;-61
2022/12/18 02:19:48;;;;;;;27.60;21.08;;;;;;;6.01;100.00;102663.53;2114909;28;20540;-61
2022/12/18 02:20:51;;;;;;;29.02;21.23;;;;;;;5.67;100.00;102614.63;2106651;28;20173;-61
2022/12/18 02:22:19;;;;;;;29.25;22.88;;;;;;;6.02;100.00;102658.81;2114917;28;20193;-61
2022/12/18 02:23:39;;;;;;;26.90;21.38;;;;;;;6.02;100.00;102651.38;2105117;28;20679;-61
2022/12/18 02:25:18;;;;;;;29.38;21.48;;;;;;;5.96;100.00;102657.50;2110882;28;20204;-61
2022/12/18 02:26:27;;;;;;;28.88;21.23;;;;;;;5.95;100.00;102655.91;2087061;28;20683;-61
2022/12/18 02:27:31;;;;;;;27.85;21.65;;;;;;;5.93;100.00;102650.75;2115076;28;20185;-61
2022/12/18 02:28:36;;;;;;;27.38;21.65;;;;;;;5.99;100.00;102657.59;2108152;28;20222;-61
2022/12/18 02:29:51;;;;;;;29.13;21.63;;;;;;;5.38;100.00;102568.22;2105078;28;20285;-61
2022/12/18 02:30:56;;;;;;;29.67;21.65;;;;;;;5.99;100.00;102665.03;2106015;28;20599;-61
2022/12/18 02:32:03;;;;;;;25.92;20.77;;;;;;;5.62;100.00;102603.06;2106422;28;20198;-62
2022/12/18 02:33:06;;;;;;;25.55;20.23;;;;;;;5.85;100.00;102653.66;2113086;28;20178;-61
2022/12/18 02:34:09;;;;;;;27.80;21.35;;;;;;;5.93;100.00;102652.69;2114518;28;20193;-61
2022/12/18 02:35:14;;;;;;;25.85;21.65;;;;;;;5.90;100.00;102664.41;2115139;28;20239;-61
2022/12/18 02:36:17;;;;;;;28.45;21.42;;;;;;;5.60;100.00;102608.91;2114601;28;20191;-61
2022/12/18 02:37:20;;;;;;;29.25;21.67;;;;;;;5.88;100.00;102666.69;2115006;28;20191;-61
2022/12/18 02:38:21;;;;;;;28.05;21.15;;;;;;;5.40;100.00;102578.88;2114892;28;20186;-61
2022/12/18 02:39:26;;;;;;;29.88;22.83;;;;;;;5.53;100.00;102616.19;2114815;28;20175;-61
2022/12/18 02:40:28;;;;;;;30.27;22.13;;;;;;;5.84;100.00;102677.59;2114796;28;20293;-61
2022/12/18 02:41:30;;;;;;;26.48;20.70;;;;;;;5.76;100.00;102672.22;2114762;28;20270;-61
2022/12/18 02:42:32;;;;;;;26.63;21.23;;;;;;;5.73;100.00;102659.97;2106602;28;20186;-62
2022/12/18 02:43:32;;;;;;;31.77;22.80;;;;;;;5.76;100.00;102670.28;2110099;28;20222;-61
2022/12/18 02:44:45;;;;;;;27.80;21.53;;;;;;;5.35;100.00;102617.63;2107852;28;20191;-61
2022/12/18 02:45:53;;;;;;;28.75;21.48;;;;;;;5.74;100.00;102669.81;2112982;28;20664;-61
2022/12/18 02:46:54;;;;;;;30.00;22.85;;;;;;;5.71;100.00;102677.97;2114802;28;20276;-61
2022/12/18 02:47:54;;;;;;;29.27;22.38;;;;;;;5.74;100.00;102677.28;2114254;28;20253;-61
2022/12/18 02:49:03;;;;;;;27.73;22.20;;;;;;;5.62;100.00;102674.56;2114731;28;20516;-61
2022/12/18 02:50:16;;;;;;;28.50;21.33;;;;;;;5.49;100.00;102670.28;2114516;28;20792;-62
2022/12/18 02:51:31;;;;;;;28.45;22.17;;;;;;;5.37;100.00;102668.34;2109488;28;20249;-61
2022/12/18 02:52:55;;;;;;;29.30;22.10;;;;;;;5.39;100.00;102676.25;2112406;28;20194;-61
2022/12/18 02:54:21;;;;;;;30.67;22.50;;;;;;;5.34;100.00;102685.53;2115016;28;20178;-61
2022/12/18 02:55:30;;;;;;;30.05;22.85;;;;;;;5.43;100.00;102682.69;2114426;28;20175;-62
2022/12/18 02:56:49;;;;;;;30.50;22.23;;;;;;;5.18;100.00;102648.13;2114574;28;20587;-61
2022/12/18 02:57:56;;;;;;;29.42;22.83;;;;;;;4.66;100.00;102568.44;2114240;28;20158;-61
2022/12/18 02:59:02;;;;;;;31.15;23.05;;;;;;;5.45;100.00;102694.94;2114706;28;20162;-61
2022/12/18 03:00:14;;;;;;;31.77;23.25;;;;;;;5.40;100.00;102692.41;2114573;28;20220;-61
2022/12/18 03:01:41;;;;;;;31.35;22.40;;;;;;;5.44;100.00;102696.06;2114293;28;20177;-61
2022/12/18 03:02:57;;;;;;;29.13;22.27;;;;;;;5.51;100.00;102696.28;2110573;28;20277;-61
2022/12/18 03:04:06;;;;;;;29.48;21.75;;;;;;;5.49;100.00;102695.81;2106574;28;20242;-62
2022/12/18 03:05:19;;;;;;;28.60;22.10;;;;;;;5.39;100.00;102693.53;2111139;28;20224;-61
2022/12/18 03:06:43;;;;;;;29.85;22.98;;;;;;;5.41;100.00;102702.25;2114197;28;20551;-61
2022/12/18 03:08:23;;;;;;;28.90;21.95;;;;;;;5.45;100.00;102707.88;2115069;28;20657;-61
2022/12/18 03:09:44;;;;;;;30.23;22.25;;;;;;;5.48;100.00;102702.47;2108877;28;20170;-61
2022/12/18 03:10:55;;;;;;;28.50;21.95;;;;;;;5.43;100.00;102712.91;2114328;28;20192;-61
2022/12/18 03:13:44;;;;;;;29.25;21.50;;;;;;;5.33;100.00;102714.19;2114644;28;20178;-61
2022/12/18 03:14:47;;;;;;;30.42;22.38;;;;;;;5.07;100.00;102705.50;2114217;28;20183;-61
2022/12/18 03:15:52;;;;;;;28.98;22.05;;;;;;;5.21;100.00;102729.88;2120433;27;20239;-61
2022/12/18 03:16:57;;;;;;;28.70;22.38;;;;;;;5.28;100.00;102725.41;2114033;28;20218;-61
2022/12/18 03:18:04;;;;;;;30.40;22.80;;;;;;;5.14;100.00;102710.44;2107564;28;20251;-62
2022/12/18 03:19:11;;;;;;;28.02;22.27;;;;;;;5.23;100.00;102730.38;2113026;28;20183;-61
2022/12/18 03:20:18;;;;;;;28.73;21.38;;;;;;;5.23;100.00;102735.88;2108298;27;20236;-62
2022/12/18 03:21:27;;;;;;;30.73;22.92;;;;;;;5.20;100.00;102729.09;2105365;28;20187;-61
2022/12/18 03:22:31;;;;;;;28.63;22.05;;;;;;;5.21;100.00;102727.94;2112470;28;20726;-61
2022/12/18 03:23:39;;;;;;;29.25;22.15;;;;;;;5.21;100.00;102733.44;2114758;28;20179;-61
2022/12/18 03:24:40;;;;;;;30.58;21.77;;;;;;;4.62;100.00;102629.88;2114779;28;20194;-61
2022/12/18 03:25:43;;;;;;;29.63;22.03;;;;;;;5.28;100.00;102738.38;2113720;28;20220;-62
2022/12/18 03:26:48;;;;;;;28.73;21.80;;;;;;;5.22;100.00;102726.00;2114313;28;20193;-61
2022/12/18 03:27:54;;;;;;;28.73;22.33;;;;;;;5.32;100.00;102740.09;2114634;28;20254;-61
2022/12/18 03:29:07;;;;;;;30.52;22.90;;;;;;;5.32;100.00;102736.50;2114640;28;20691;-61
2022/12/18 03:30:12;;;;;;;27.27;20.90;;;;;;;5.32;100.00;102739.25;2114512;28;20193;-61
2022/12/18 03:31:14;;;;;;;30.60;22.15;;;;;;;5.28;100.00;102741.13;2113705;27;20208;-61
2022/12/18 03:32:30;;;;;;;28.98;21.08;;;;;;;5.30;100.00;102744.31;2113115;28;20217;-61
2022/12/18 03:33:54;;;;;;;28.38;21.52;;;;;;;5.38;100.00;102746.94;2108645;28;20162;-61
2022/12/18 03:35:01;;;;;;;29.42;21.15;;;;;;;5.46;100.00;102735.03;2114423;28;20177;-61
2022/12/18 03:36:01;;;;;;;28.40;20.90;;;;;;;5.03;100.00;102666.13;2109998;28;20679;-61
2022/12/18 03:37:02;;;;;;;28.97;21.40;;;;;;;5.52;100.00;102747.38;2105550;28;20586;-61
2022/12/18 03:38:03;;;;;;;27.53;20.90;;;;;;;5.57;100.00;102743.56;2108116;28;20198;-61
2022/12/18 03:39:03;;;;;;;28.50;21.27;;;;;;;5.52;100.00;102747.38;2114425;28;20180;-61
2022/12/18 03:40:05;;;;;;;29.40;21.43;;;;;;;5.53;100.00;102742.69;2114835;28;20219;-61
2022/12/18 03:41:33;;;;;;;26.10;19.95;;;;;;;5.58;100.00;102753.44;2106358;28;20273;-61
2022/12/18 03:42:45;;;;;;;27.08;19.73;;;;;;;5.50;100.00;102740.63;2107189;28;20170;-61
2022/12/18 03:43:57;;;;;;;28.50;20.40;;;;;;;5.26;100.00;102705.72;2114375;28;20177;-61
2022/12/18 03:45:10;;;;;;;28.35;20.70;;;;;;;5.43;100.00;102738.44;2113754;28;20158;-61
2022/12/18 03:46:20;;;;;;;26.73;20.08;;;;;;;5.36;100.00;102746.50;2113370;28;20643;-61
2022/12/18 03:47:28;;;;;;;27.20;20.33;;;;;;;5.44;100.00;102750.28;2114075;28;20211;-61
2022/12/18 03:48:46;;;;;;;26.60;20.50;;;;;;;5.47;100.00;102747.63;2114384;28;20191;-61
2022/12/18 03:50:19;;;;;;;28.65;21.33;;;;;;;5.51;100.00;102748.53;2114206;28;20330;-61
2022/12/18 03:51:31;;;;;;;26.90;19.95;;;;;;;5.40;100.00;102750.16;2113961;28;20198;-61
2022/12/18 03:52:44;;;;;;;28.98;20.85;;;;;;;5.05;100.00;102680.34;2114160;28;20239;-61
2022/12/18 03:53:56;;;;;;;27.30;20.65;;;;;;;5.45;100.00;102762.88;2114464;28;20182;-61
2022/12/18 03:54:59;;;;;;;29.42;21.33;;;;;;;5.40;100.00;102766.66;2114529;27;20617;-61
2022/12/18 03:56:01;;;;;;;26.42;20.10;;;;;;;5.43;100.00;102765.16;2113863;28;20174;-61
2022/12/18 03:57:11;;;;;;;26.67;20.25;;;;;;;5.38;100.00;102762.66;2106892;28;20292;-61
2022/12/18 03:58:16;;;;;;;28.25;19.92;;;;;;;5.27;100.00;102761.50;2112969;28;20185;-61
2022/12/18 03:59:18;;;;;;;30.13;21.52;;;;;;;5.31;100.00;102774.22;2113629;28;20183;-61
2022/12/18 04:00:20;;;;;;;26.77;19.95;;;;;;;5.37;100.00;102770.09;2114035;28;20205;-61
2022/12/18 04:01:25;;;;;;;26.98;20.75;;;;;;;5.38;100.00;102773.66;2113834;28;20186;-62
2022/12/18 04:02:26;;;;;;;28.67;20.90;;;;;;;5.41;100.00;102773.75;2113873;28;20249;-61
2022/12/18 04:03:29;;;;;;;29.90;21.53;;;;;;;5.12;100.00;102724.53;2114249;27;20184;-61
2022/12/18 04:04:31;;;;;;;28.25;21.65;;;;;;;5.31;100.00;102773.41;2114282;28;20301;-61
2022/12/18 04:05:33;;;;;;;29.35;21.50;;;;;;;5.23;100.00;102771.59;2113927;28;20178;-61
2022/12/18 04:06:35;;;;;;;28.20;20.45;;;;;;;5.29;100.00;102761.97;2114511;28;20174;-61
2022/12/18 04:07:38;;;;;;;28.40;20.52;;;;;;;5.36;100.00;102778.69;2105395;28;20530;-61
2022/12/18 04:08:39;;;;;;;27.13;21.05;;;;;;;5.32;100.00;102775.00;2113501;28;20249;-61
2022/12/18 04:09:42;;;;;;;28.20;20.80;;;;;;;5.34;100.00;102780.97;2113383;28;20192;-62
2022/12/18 04:10:42;;;;;;;29.08;20.95;;;;;;;5.40;100.00;102780.41;2110960;28;20194;-61
2022/12/18 04:11:44;;;;;;;28.50;21.00;;;;;;;5.28;100.00;102785.91;2113138;28;20185;-61
2022/12/18 04:12:44;;;;;;;32.97;22.13;;;;;;;5.18;100.00;102772.63;2109194;28;20196;-61
2022/12/18 04:13:45;;;;;;;27.60;19.03;;;;;;;5.01;100.00;102761.84;2111774;28;20219;-61
2022/12/18 04:14:45;;;;;;;26.37;20.73;;;;;;;5.02;100.00;102779.16;2107036;28;20196;-61
2022/12/18 04:15:46;;;;;;;26.43;20.30;;;;;;;5.09;100.00;102777.44;2113945;28;20233;-62
2022/12/18 04:16:46;;;;;;;26.10;19.87;;;;;;;5.05;100.00;102781.22;2105952;28;20605;-61
2022/12/18 04:17:49;;;;;;;27.10;19.50;;;;;;;4.99;100.00;102774.34;2105379;28;20229;-61
2022/12/18 04:18:49;;;;;;;27.52;21.02;;;;;;;4.45;100.00;102720.69;2112057;28;20210;-61
2022/12/18 04:19:50;;;;;;;24.63;18.57;;;;;;;4.87;100.00;102782.59;2114136;28;20197;-61
2022/12/18 04:20:50;;;;;;;27.93;19.70;;;;;;;4.83;100.00;102776.94;2114020;28;20216;-61
2022/12/18 04:21:51;;;;;;;26.33;20.17;;;;;;;4.87;100.00;102779.84;2113805;28;20196;-61
2022/12/18 04:22:51;;;;;;;30.00;18.50;;;;;;;4.75;100.00;102758.63;2113566;28;20215;-61
2022/12/18 04:23:52;;;;;;;25.87;19.40;;;;;;;4.87;100.00;102775.13;2114202;28;20216;-61
2022/12/18 04:24:52;;;;;;;26.67;19.33;;;;;;;4.73;100.00;102769.16;2114273;28;20559;-61
2022/12/18 04:25:52;;;;;;;26.10;19.87;;;;;;;4.72;100.00;102780.50;2113824;28;20445;-61
2022/12/18 04:26:54;;;;;;;28.60;19.57;;;;;;;4.24;100.00;102703.50;2114020;28;20187;-61
2022/12/18 04:27:54;;;;;;;27.55;19.40;;;;;;;4.77;100.00;102780.28;2113832;28;20293;-61
2022/12/18 04:28:54;;;;;;;26.60;19.03;;;;;;;4.66;100.00;102788.13;2113624;28;20188;-61
2022/12/18 04:29:55;;;;;;;27.40;19.47;;;;;;;4.63;100.00;102782.53;2114123;28;20247;-61
2022/12/18 04:30:58;;;;;;;27.37;19.63;;;;;;;4.58;100.00;102791.00;2113867;28;20182;-62
2022/12/18 04:31:59;;;;;;;26.77;18.98;;;;;;;4.56;100.00;102787.78;2113603;28;20181;-61
2022/12/18 04:32:59;;;;;;;25.93;18.47;;;;;;;3.86;100.00;102681.78;2113910;28;20274;-61
2022/12/18 04:34:00;;;;;;;28.73;20.07;;;;;;;4.32;100.00;102774.75;2113936;28;20181;-61
2022/12/18 04:35:00;;;;;;;27.37;19.27;;;;;;;4.45;100.00;102792.09;2114249;28;20181;-61
2022/12/18 04:36:01;;;;;;;27.93;20.47;;;;;;;4.36;100.00;102789.44;2113648;28;20739;-61
2022/12/18 04:37:01;;;;;;;27.20;19.97;;;;;;;4.33;100.00;102795.63;2114070;28;20194;-62
2022/12/18 04:38:01;;;;;;;29.77;19.77;;;;;;;4.29;100.00;102766.41;2114135;28;20629;-61
2022/12/18 04:39:02;;;;;;;26.07;19.20;;;;;;;4.52;100.00;102795.88;2113445;28;20171;-61
2022/12/18 04:40:03;;;;;;;27.63;19.63;;;;;;;4.60;100.00;102797.75;2112914;28;20192;-61
2022/12/18 04:41:03;;;;;;;27.93;20.20;;;;;;;4.65;100.00;102796.72;2105793;28;20187;-61
2022/12/18 04:42:04;;;;;;;25.00;18.70;;;;;;;4.54;100.00;102779.06;2105508;28;20674;-61
2022/12/18 04:43:04;;;;;;;28.97;19.93;;;;;;;4.69;100.00;102795.72;2112622;28;20188;-61
2022/12/18 04:44:05;;;;;;;27.80;18.37;;;;;;;4.20;100.00;102725.34;2113840;28;20203;-61
2022/12/18 04:45:06;;;;;;;24.93;18.63;;;;;;;4.84;100.00;102806.03;2108922;28;20196;-61
2022/12/18 04:46:08;;;;;;;27.70;19.70;;;;;;;4.84;100.00;102808.78;2105037;28;20190;-61
2022/12/18 04:47:08;;;;;;;28.77;19.95;;;;;;;4.90;100.00;102806.59;2105582;28;20224;-61
2022/12/18 04:48:09;;;;;;;26.87;19.50;;;;;;;4.84;100.00;102802.47;2105519;28;20178;-61
2022/12/18 04:49:10;;;;;;;28.90;20.20;;;;;;;4.89;100.00;102808.56;2104862;28;20655;-61
2022/12/18 04:50:11;;;;;;;28.42;20.77;;;;;;;4.93;100.00;102806.72;2105668;28;20204;-61
2022/12/18 04:51:11;;;;;;;28.57;19.77;;;;;;;4.87;100.00;102807.31;2105277;28;20188;-61
2022/12/18 04:52:12;;;;;;;28.70;20.50;;;;;;;4.84;100.00;102811.53;2105360;28;20206;-61
2022/12/18 04:53:12;;;;;;;27.30;20.27;;;;;;;4.76;100.00;102808.88;2105672;28;20193;-61
2022/12/18 04:54:13;;;;;;;27.70;19.73;;;;;;;4.76;100.00;102803.38;2105191;28;20181;-61
2022/12/18 04:55:13;;;;;;;27.10;19.77;;;;;;;4.64;100.00;102795.13;2112153;28;20199;-61
2022/12/18 04:56:15;;;;;;;29.43;21.80;;;;;;;4.77;100.00;102816.00;2113424;28;20175;-61
2022/12/18 04:57:15;;;;;;;29.70;20.63;;;;;;;4.65;100.00;102792.03;2112962;28;20264;-61